Time;durP1;ratioP1;P1;durP2;ratioP2;P2;SDS_P1;SDS_P2;PMS_P1;PMS_P2;Temp;Humidity;BMP_temperature;BMP_pressure;BME280_temperature;BME280_humidity;BME280_pressure;Samples;Min_cycle;Max_cycle;Signal;HPM_P1;HPM_P2
2022/08/23 00:02:21;;;;;;;;;;;14.80;99.90;;;;;;5044462;28;19932;-71
2022/08/23 00:04:54;;;;;;;;;;;14.80;99.90;;;;;;5051489;28;20019;-71
2022/08/23 00:07:20;;;;;;;;;;;14.80;99.90;;;;;;5017607;28;19920;-71
2022/08/23 00:09:52;;;;;;;;;;;14.70;99.90;;;;;;5008388;28;19921;-72
2022/08/23 00:12:24;;;;;;;;;;;14.70;99.90;;;;;;5023022;28;20449;-71
2022/08/23 00:14:56;;;;;;;;;;;14.70;99.90;;;;;;5033518;28;19920;-71
2022/08/23 00:17:27;;;;;;;;;;;14.60;99.90;;;;;;5040436;28;19921;-71
2022/08/23 00:19:59;;;;;;;;;;;14.50;99.90;;;;;;5032010;28;19931;-71
2022/08/23 00:22:30;;;;;;;;;;;14.50;99.90;;;;;;5019027;28;19928;-71
2022/08/23 00:25:03;;;;;;;;;;;14.50;99.90;;;;;;5024282;28;19964;-72
2022/08/23 00:27:35;;;;;;;;;;;14.50;99.90;;;;;;5014088;28;19967;-71
2022/08/23 00:30:09;;;;;;;;;;;14.50;99.90;;;;;;5023340;28;20367;-71
2022/08/23 00:32:41;;;;;;;;;;;14.50;99.90;;;;;;5021580;28;19943;-71
2022/08/23 00:35:13;;;;;;;;;;;14.50;99.90;;;;;;5018691;28;20438;-70
2022/08/23 00:37:46;;;;;;;;;;;14.40;99.90;;;;;;5025133;28;19971;-73
2022/08/23 00:40:14;;;;;;;;;;;14.40;99.90;;;;;;5017539;28;19920;-71
2022/08/23 00:48:37;;;;;;;;;;;14.30;99.90;;;;;;5025658;28;19921;-70
2022/08/23 00:51:14;;;;;;;;;;;14.30;99.90;;;;;;5027918;28;19925;-71
2022/08/23 00:53:48;;;;;;;;;;;14.20;99.90;;;;;;5031078;28;19925;-71
2022/08/23 00:56:21;;;;;;;;;;;14.20;99.90;;;;;;5037943;28;20298;-71
2022/08/23 00:58:53;;;;;;;;;;;14.10;99.90;;;;;;5013236;28;19975;-71
2022/08/23 01:01:25;;;;;;;;;;;14.10;99.90;;;;;;5049791;28;19929;-72
2022/08/23 01:03:57;;;;;;;;;;;14.00;99.90;;;;;;5033054;28;19921;-71
2022/08/23 01:06:36;;;;;;;;;;;14.00;99.90;;;;;;5010909;28;20403;-71
2022/08/23 01:09:10;;;;;;;;;;;14.00;99.90;;;;;;5047883;28;19925;-72
2022/08/23 01:12:03;;;;;;;;;;;14.00;99.90;;;;;;5030918;28;20445;-71
2022/08/23 01:14:39;;;;;;;;;;;14.00;99.90;;;;;;5027444;28;20370;-71
2022/08/23 01:17:13;;;;;;;;;;;14.00;99.90;;;;;;5014342;28;19920;-71
2022/08/23 01:19:53;;;;;;;;;;;14.00;99.90;;;;;;5035997;28;19928;-70
2022/08/23 01:22:33;;;;;;;;;;;13.90;99.90;;;;;;5038919;28;19925;-71
2022/08/23 01:25:07;;;;;;;;;;;13.90;99.90;;;;;;5030023;28;19921;-71
2022/08/23 01:27:41;;;;;;;;;;;13.80;99.90;;;;;;5029377;28;19930;-71
2022/08/23 01:30:16;;;;;;;;;;;13.80;99.90;;;;;;5036164;28;19998;-71
2022/08/23 01:32:50;;;;;;;;;;;13.70;99.90;;;;;;5026921;28;19991;-71
2022/08/23 01:35:17;;;;;;;;;;;13.70;99.90;;;;;;5028719;28;19921;-71
2022/08/23 01:37:49;;;;;;;;;;;13.70;99.90;;;;;;5027066;28;19921;-71
2022/08/23 01:40:21;;;;;;;;;;;13.60;99.90;;;;;;5011778;28;19927;-71
2022/08/23 01:42:53;;;;;;;;;;;13.60;99.90;;;;;;5030088;28;19978;-71
2022/08/23 01:45:26;;;;;;;;;;;13.60;99.90;;;;;;5026054;28;19920;-71
2022/08/23 01:47:58;;;;;;;;;;;13.50;99.90;;;;;;5046137;28;19955;-71
2022/08/23 01:50:30;;;;;;;;;;;13.50;99.90;;;;;;5035766;28;20373;-71
2022/08/23 01:53:02;;;;;;;;;;;13.50;99.90;;;;;;5034861;28;20381;-70
2022/08/23 01:55:34;;;;;;;;;;;13.50;99.90;;;;;;5035469;28;19921;-71
2022/08/23 01:58:06;;;;;;;;;;;13.40;99.90;;;;;;5029587;28;19921;-70
2022/08/23 02:00:41;;;;;;;;;;;13.40;99.90;;;;;;5039052;28;19929;-71
2022/08/23 02:03:12;;;;;;;;;;;13.50;99.90;;;;;;5028466;28;19921;-71
2022/08/23 02:05:44;;;;;;;;;;;13.40;99.90;;;;;;5025380;28;19921;-70
2022/08/23 02:11:20;;;;;;;;;;;13.40;99.90;;;;;;5024073;28;20342;-72
2022/08/23 02:13:49;;;;;;;;;;;13.40;99.90;;;;;;5022811;28;19921;-73
2022/08/23 02:16:30;;;;;;;;;;;13.30;99.90;;;;;;5026902;28;19940;-70
2022/08/23 02:19:03;;;;;;;;;;;13.30;99.90;;;;;;5041492;28;19960;-70
2022/08/23 02:21:36;;;;;;;;;;;13.20;99.90;;;;;;5030616;28;19921;-71
2022/08/23 02:24:18;;;;;;;;;;;13.20;99.90;;;;;;5024020;28;19974;-71
2022/08/23 02:26:51;;;;;;;;;;;13.30;99.90;;;;;;5035745;28;19921;-71
2022/08/23 02:29:20;;;;;;;;;;;13.20;99.90;;;;;;5017763;28;19936;-71
2022/08/23 02:31:52;;;;;;;;;;;13.20;99.90;;;;;;5035179;28;20366;-71
2022/08/23 02:34:24;;;;;;;;;;;13.10;99.90;;;;;;5033911;28;20028;-71
2022/08/23 02:36:50;;;;;;;;;;;13.10;99.90;;;;;;5033037;28;20011;-71
2022/08/23 02:39:23;;;;;;;;;;;13.10;99.90;;;;;;5030697;28;19920;-71
2022/08/23 02:41:55;;;;;;;;;;;13.10;99.90;;;;;;5043067;28;19921;-71
2022/08/23 02:44:33;;;;;;;;;;;13.10;99.90;;;;;;5018154;28;20375;-71
2022/08/23 02:47:07;;;;;;;;;;;13.10;99.90;;;;;;5027610;28;19967;-71
2022/08/23 02:49:45;;;;;;;;;;;13.10;99.90;;;;;;5024495;28;19928;-71
2022/08/23 02:52:17;;;;;;;;;;;13.10;99.90;;;;;;5025245;28;19925;-70
2022/08/23 02:54:48;;;;;;;;;;;13.10;99.90;;;;;;5012909;28;19921;-71
2022/08/23 02:57:21;;;;;;;;;;;13.00;99.90;;;;;;5025119;28;19935;-70
2022/08/23 02:59:53;;;;;;;;;;;13.00;99.90;;;;;;5027333;28;19928;-71
2022/08/23 03:02:25;;;;;;;;;;;13.00;99.90;;;;;;5044776;28;20019;-71
2022/08/23 03:04:57;;;;;;;;;;;13.10;99.90;;;;;;5041959;28;19928;-72
2022/08/23 03:07:23;;;;;;;;;;;13.10;99.90;;;;;;5034171;28;19967;-70
2022/08/23 03:09:50;;;;;;;;;;;13.10;99.90;;;;;;5032906;28;19921;-70
2022/08/23 03:12:17;;;;;;;;;;;13.00;99.90;;;;;;5031938;28;20387;-71
2022/08/23 03:14:50;;;;;;;;;;;13.00;99.90;;;;;;5009777;28;19963;-71
2022/08/23 03:17:22;;;;;;;;;;;13.00;99.90;;;;;;5029214;28;20019;-71
2022/08/23 03:19:54;;;;;;;;;;;13.00;99.90;;;;;;5032218;28;19949;-71
2022/08/23 03:22:26;;;;;;;;;;;12.90;99.90;;;;;;5008205;28;19921;-71
2022/08/23 03:24:57;;;;;;;;;;;12.90;99.90;;;;;;5023268;28;19925;-71
2022/08/23 03:27:40;;;;;;;;;;;12.80;99.90;;;;;;5017787;28;19932;-72
2022/08/23 03:30:12;;;;;;;;;;;12.80;99.90;;;;;;5035272;28;19921;-73
2022/08/23 03:32:44;;;;;;;;;;;12.80;99.90;;;;;;5055144;28;19992;-71
2022/08/23 03:35:16;;;;;;;;;;;12.80;99.90;;;;;;5036832;28;19924;-71
2022/08/23 03:37:42;;;;;;;;;;;12.80;99.90;;;;;;5006846;28;19967;-73
2022/08/23 03:40:14;;;;;;;;;;;12.80;99.90;;;;;;5034569;23;20383;-71
2022/08/23 03:42:46;;;;;;;;;;;12.80;99.90;;;;;;5010735;28;19921;-71
2022/08/23 03:45:20;;;;;;;;;;;12.80;99.90;;;;;;5011750;28;19921;-71
2022/08/23 03:47:52;;;;;;;;;;;12.80;99.90;;;;;;5003002;28;19927;-71
2022/08/23 03:50:25;;;;;;;;;;;12.80;99.90;;;;;;5006984;28;20028;-71
2022/08/23 03:52:52;;;;;;;;;;;12.80;99.90;;;;;;5003609;28;20040;-71
2022/08/23 03:55:24;;;;;;;;;;;12.80;99.90;;;;;;5012438;28;19922;-73
2022/08/23 03:57:56;;;;;;;;;;;12.80;99.90;;;;;;5035435;28;19921;-73
2022/08/23 04:00:28;;;;;;;;;;;12.80;99.90;;;;;;5021573;28;19925;-70
2022/08/23 04:03:00;;;;;;;;;;;12.80;99.90;;;;;;5014208;28;19920;-70
2022/08/23 04:05:41;;;;;;;;;;;12.70;99.90;;;;;;5003023;28;19921;-71
2022/08/23 04:08:13;;;;;;;;;;;12.70;99.90;;;;;;5013693;28;19928;-71
2022/08/23 04:10:45;;;;;;;;;;;12.70;99.90;;;;;;5004929;28;20024;-71
2022/08/23 04:13:17;;;;;;;;;;;12.70;99.90;;;;;;5013953;28;19928;-71
2022/08/23 04:15:44;;;;;;;;;;;12.60;99.90;;;;;;5011327;28;19928;-71
2022/08/23 04:18:17;;;;;;;;;;;12.60;99.90;;;;;;5010429;28;19922;-71
2022/08/23 04:20:49;;;;;;;;;;;12.60;99.90;;;;;;5002987;28;20462;-71
2022/08/23 04:23:21;;;;;;;;;;;12.50;99.90;;;;;;5001700;28;19968;-71
2022/08/23 04:25:55;;;;;;;;;;;12.40;99.90;;;;;;5009532;28;19932;-71
2022/08/23 04:28:26;;;;;;;;;;;12.40;99.90;;;;;;5012549;28;19921;-72
2022/08/23 04:30:59;;;;;;;;;;;12.30;99.90;;;;;;5002389;28;20470;-71
2022/08/23 04:33:32;;;;;;;;;;;12.30;99.90;;;;;;5003120;28;20375;-71
2022/08/23 04:35:59;;;;;;;;;;;12.30;99.90;;;;;;5013515;28;19951;-71
2022/08/23 04:38:31;;;;;;;;;;;12.40;99.90;;;;;;5006068;28;20019;-71
2022/08/23 04:43:58;;;;;;;;;;;12.50;99.90;;;;;;5007780;28;19960;-71
2022/08/23 04:46:30;;;;;;;;;;;12.50;99.90;;;;;;5035797;28;19922;-71
2022/08/23 04:48:59;;;;;;;;;;;12.50;99.90;;;;;;5004753;28;19921;-70
2022/08/23 04:51:31;;;;;;;;;;;12.50;99.90;;;;;;5010320;28;19972;-71
2022/08/23 04:54:03;;;;;;;;;;;12.60;99.90;;;;;;5005637;28;19921;-71
2022/08/23 04:56:40;;;;;;;;;;;12.60;99.90;;;;;;5010091;28;19969;-71
2022/08/23 04:59:11;;;;;;;;;;;12.60;99.90;;;;;;5022446;28;19921;-71
2022/08/23 05:01:40;;;;;;;;;;;12.60;99.90;;;;;;5010797;28;19921;-71
2022/08/23 05:04:14;;;;;;;;;;;12.60;99.90;;;;;;5003690;28;19928;-71
2022/08/23 05:06:41;;;;;;;;;;;12.60;99.90;;;;;;5013226;28;20374;-71
2022/08/23 05:09:13;;;;;;;;;;;12.70;99.90;;;;;;5009993;28;19957;-71
2022/08/23 05:11:44;;;;;;;;;;;12.60;99.90;;;;;;5004233;28;19976;-71
2022/08/23 05:14:17;;;;;;;;;;;12.70;99.90;;;;;;5009133;28;19929;-71
2022/08/23 05:16:48;;;;;;;;;;;12.70;99.90;;;;;;4978748;28;20248;-71
2022/08/23 05:19:21;;;;;;;;;;;12.70;99.90;;;;;;4992522;28;19921;-72
2022/08/23 05:21:48;;;;;;;;;;;12.70;99.90;;;;;;5029069;28;19921;-71
2022/08/23 05:24:21;;;;;;;;;;;12.80;99.90;;;;;;5013642;28;20007;-73
2022/08/23 05:26:52;;;;;;;;;;;12.80;99.90;;;;;;5010749;28;20397;-71
2022/08/23 05:29:24;;;;;;;;;;;12.80;99.90;;;;;;5004325;28;20388;-71
2022/08/23 05:31:56;;;;;;;;;;;12.80;99.90;;;;;;5001678;28;20482;-71
2022/08/23 05:34:27;;;;;;;;;;;12.80;99.90;;;;;;5008780;28;20024;-72
2022/08/23 05:37:03;;;;;;;;;;;12.80;99.90;;;;;;5015630;28;19968;-71
2022/08/23 05:39:35;;;;;;;;;;;12.80;99.90;;;;;;5005181;28;19928;-71
2022/08/23 05:42:10;;;;;;;;;;;12.80;99.90;;;;;;5005515;28;20418;-71
2022/08/23 05:44:44;;;;;;;;;;;12.80;99.90;;;;;;5008675;28;20036;-71
2022/08/23 05:47:13;;;;;;;;;;;12.90;99.90;;;;;;5016025;28;19925;-71
2022/08/23 05:49:49;;;;;;;;;;;12.90;99.90;;;;;;5022280;28;19925;-71
2022/08/23 05:52:22;;;;;;;;;;;13.00;99.90;;;;;;5016069;28;19932;-71
2022/08/23 05:54:53;;;;;;;;;;;13.00;99.90;;;;;;5010351;28;19921;-71
2022/08/23 05:57:47;;;;;;;;;;;13.00;99.90;;;;;;5006675;28;19921;-70
2022/08/23 06:00:20;;;;;;;;;;;13.10;99.90;;;;;;5013602;28;19925;-70
2022/08/23 06:02:58;;;;;;;;;;;13.20;99.90;;;;;;5012456;28;19928;-71
2022/08/23 06:05:30;;;;;;;;;;;13.20;99.90;;;;;;5013940;28;19928;-71
2022/08/23 06:08:02;;;;;;;;;;;13.30;99.90;;;;;;5004924;28;19928;-71
2022/08/23 06:10:34;;;;;;;;;;;13.30;99.90;;;;;;5016690;28;19963;-71
2022/08/23 06:13:19;;;;;;;;;;;13.30;99.90;;;;;;5021342;28;19925;-71
2022/08/23 06:15:51;;;;;;;;;;;13.40;99.90;;;;;;5004835;28;19921;-72
2022/08/23 06:18:23;;;;;;;;;;;13.50;99.90;;;;;;5032226;28;19992;-71
2022/08/23 06:21:06;;;;;;;;;;;13.50;99.90;;;;;;5014851;28;20393;-71
2022/08/23 06:23:48;;;;;;;;;;;13.60;99.90;;;;;;5010693;28;19928;-72
2022/08/23 06:26:21;;;;;;;;;;;13.60;99.90;;;;;;5007174;28;20372;-72
2022/08/23 06:28:54;;;;;;;;;;;13.60;99.90;;;;;;5030772;28;19921;-70
2022/08/23 06:31:47;;;;;;;;;;;13.70;99.90;;;;;;5022262;28;20020;-71
2022/08/23 06:34:26;;;;;;;;;;;13.80;99.90;;;;;;5037387;28;19921;-71
2022/08/23 06:37:18;;;;;;;;;;;13.90;99.90;;;;;;5027605;28;19967;-70
2022/08/23 06:40:22;;;;;;;;;;;13.90;99.90;;;;;;5006154;28;20012;-71
2022/08/23 06:43:06;;;;;;;;;;;14.10;99.90;;;;;;5012951;28;19965;-71
2022/08/23 06:45:52;;;;;;;;;;;14.20;99.90;;;;;;4989587;28;19925;-72
2022/08/23 06:48:23;;;;;;;;;;;14.20;99.90;;;;;;5001152;28;19921;-72
2022/08/23 06:50:55;;;;;;;;;;;14.30;99.90;;;;;;5012572;28;19925;-72
2022/08/23 06:53:30;;;;;;;;;;;14.30;99.90;;;;;;5006544;28;19921;-72
2022/08/23 06:56:22;;;;;;;;;;;14.40;99.90;;;;;;5011839;28;19922;-71
2022/08/23 06:59:05;;;;;;;;;;;14.40;99.90;;;;;;5000518;28;20052;-72
2022/08/23 07:02:11;;;;;;;;;;;14.50;99.90;;;;;;4985466;28;19925;-72
2022/08/23 07:05:03;;;;;;;;;;;14.60;99.90;;;;;;5024434;28;19921;-72
2022/08/23 07:07:35;;;;;;;;;;;14.60;99.90;;;;;;5021263;28;20040;-71
2022/08/23 07:10:08;;;;;;;;;;;14.70;99.90;;;;;;5005736;28;19975;-71
2022/08/23 07:12:41;;;;;;;;;;;14.80;99.90;;;;;;4996049;28;19921;-70
2022/08/23 07:15:09;;;;;;;;;;;15.00;99.90;;;;;;5002657;28;19921;-70
2022/08/23 07:17:43;;;;;;;;;;;15.00;99.90;;;;;;5002812;28;19932;-72
2022/08/23 07:20:15;;;;;;;;;;;15.10;99.90;;;;;;5003479;28;19921;-71
2022/08/23 07:22:47;;;;;;;;;;;15.30;99.90;;;;;;5004371;28;19945;-71
2022/08/23 07:25:19;;;;;;;;;;;15.40;99.90;;;;;;5001909;28;19932;-71
2022/08/23 07:27:54;;;;;;;;;;;15.50;99.90;;;;;;5005703;28;19971;-71
2022/08/23 07:30:26;;;;;;;;;;;15.60;99.90;;;;;;5014449;28;19972;-71
2022/08/23 07:32:58;;;;;;;;;;;15.70;99.90;;;;;;5005248;28;19964;-71
2022/08/23 07:35:32;;;;;;;;;;;15.80;99.90;;;;;;5018722;28;19925;-71
2022/08/23 07:38:03;;;;;;;;;;;15.90;99.90;;;;;;5027406;28;20020;-71
2022/08/23 07:40:35;;;;;;;;;;;16.10;99.90;;;;;;5005262;28;19921;-72
2022/08/23 07:43:08;;;;;;;;;;;16.10;99.90;;;;;;5004358;28;20335;-71
2022/08/23 07:45:42;;;;;;;;;;;16.20;99.90;;;;;;5003517;28;19922;-71
2022/08/23 07:48:13;;;;;;;;;;;16.30;99.90;;;;;;4996555;28;19921;-73
2022/08/23 07:51:03;;;;;;;;;;;16.40;99.90;;;;;;5004406;28;19921;-72
2022/08/23 07:53:35;;;;;;;;;;;16.60;99.90;;;;;;5010777;28;20429;-71
2022/08/23 07:56:13;;;;;;;;;;;16.70;99.90;;;;;;5012340;28;19925;-71
2022/08/23 07:59:00;;;;;;;;;;;16.80;99.90;;;;;;5020273;28;19927;-72
2022/08/23 08:01:58;;;;;;;;;;;17.00;99.90;;;;;;5008658;28;19965;-71
2022/08/23 08:04:30;;;;;;;;;;;17.20;99.90;;;;;;5014082;28;19921;-71
2022/08/23 08:07:03;;;;;;;;;;;17.30;99.90;;;;;;5009608;28;19956;-71
2022/08/23 08:09:37;;;;;;;;;;;17.40;99.90;;;;;;5002242;28;19921;-71
2022/08/23 08:12:09;;;;;;;;;;;17.50;99.90;;;;;;5037923;28;19956;-71
2022/08/23 08:14:42;;;;;;;;;;;17.60;99.90;;;;;;4997488;28;19925;-72
2022/08/23 08:17:16;;;;;;;;;;;17.70;99.90;;;;;;5005797;28;19925;-71
2022/08/23 08:20:08;;;;;;;;;;;17.80;99.90;;;;;;5004748;28;19925;-72
2022/08/23 08:22:44;;;;;;;;;;;18.00;99.90;;;;;;5023822;28;19929;-71
2022/08/23 08:25:33;;;;;;;;;;;18.20;99.90;;;;;;4996213;28;19926;-71
2022/08/23 08:28:02;;;;;;;;;;;18.30;99.90;;;;;;5036509;28;20023;-71
2022/08/23 08:30:33;;;;;;;;;;;18.40;99.90;;;;;;5005601;28;20327;-72
2022/08/23 08:33:05;;;;;;;;;;;18.60;99.90;;;;;;5003052;28;19921;-72
2022/08/23 08:35:38;;;;;;;;;;;18.70;99.90;;;;;;5003470;28;20340;-70
2022/08/23 08:38:10;;;;;;;;;;;18.90;99.90;;;;;;5022012;28;19935;-71
2022/08/23 08:40:43;;;;;;;;;;;19.00;99.90;;;;;;5002896;28;19971;-71
2022/08/23 08:43:23;;;;;;;;;;;19.10;99.90;;;;;;5006002;28;19921;-72
2022/08/23 08:45:58;;;;;;;;;;;19.30;99.90;;;;;;5010873;28;20292;-71
2022/08/23 08:48:26;;;;;;;;;;;19.40;99.90;;;;;;5037974;28;19991;-71
2022/08/23 08:51:02;;;;;;;;;;;19.50;99.90;;;;;;5018065;28;19928;-73
2022/08/23 08:53:36;;;;;;;;;;;19.70;99.90;;;;;;5017403;28;19944;-71
2022/08/23 08:56:25;;;;;;;;;;;19.80;99.90;;;;;;5007173;28;19927;-71
2022/08/23 08:59:08;;;;;;;;;;;19.90;99.90;;;;;;5010978;28;20372;-71
2022/08/23 09:01:40;;;;;;;;;;;20.10;99.90;;;;;;5012846;28;19975;-71
2022/08/23 09:04:13;;;;;;;;;;;20.20;99.90;;;;;;5013109;28;19957;-72
2022/08/23 09:07:00;;;;;;;;;;;20.30;99.90;;;;;;5029504;28;20007;-71
2022/08/23 09:09:50;;;;;;;;;;;20.40;99.90;;;;;;4988498;28;20394;-71
2022/08/23 09:12:41;;;;;;;;;;;20.50;99.90;;;;;;5006044;28;19926;-71
2022/08/23 09:15:31;;;;;;;;;;;20.60;99.90;;;;;;5024561;28;20589;-71
2022/08/23 09:18:06;;;;;;;;;;;20.80;99.90;;;;;;5016888;28;20012;-71
2022/08/23 09:20:40;;;;;;;;;;;20.90;99.90;;;;;;5042283;28;20061;-72
2022/08/23 09:23:17;;;;;;;;;;;21.10;99.90;;;;;;5006463;28;19921;-71
2022/08/23 09:25:51;;;;;;;;;;;21.10;99.90;;;;;;5023984;28;19921;-73
2022/08/23 09:28:33;;;;;;;;;;;21.20;99.90;;;;;;5024167;28;19921;-71
2022/08/23 09:31:06;;;;;;;;;;;21.40;99.90;;;;;;5041734;28;19953;-70
2022/08/23 09:33:40;;;;;;;;;;;21.50;99.90;;;;;;5006515;28;20041;-71
2022/08/23 09:36:32;;;;;;;;;;;21.60;99.90;;;;;;5015143;28;19925;-71
2022/08/23 09:39:22;;;;;;;;;;;21.70;99.90;;;;;;5017751;28;19929;-71
2022/08/23 09:41:54;;;;;;;;;;;21.80;99.90;;;;;;5013145;28;20291;-71
2022/08/23 09:44:38;;;;;;;;;;;22.00;99.90;;;;;;5013094;28;20020;-71
2022/08/23 09:47:11;;;;;;;;;;;22.10;99.90;;;;;;5006138;28;20352;-72
2022/08/23 09:49:51;;;;;;;;;;;22.20;99.90;;;;;;5006428;28;19932;-72
2022/08/23 09:52:32;;;;;;;;;;;22.30;99.90;;;;;;5010454;28;20355;-72
2022/08/23 09:55:09;;;;;;;;;;;22.40;99.90;;;;;;5009098;28;19929;-71
2022/08/23 09:57:45;;;;;;;;;;;22.50;99.90;;;;;;5012066;28;19956;-71
2022/08/23 10:00:22;;;;;;;;;;;22.50;99.90;;;;;;5015072;28;19926;-71
2022/08/23 10:02:56;;;;;;;;;;;22.60;99.90;;;;;;5014660;28;19921;-71
2022/08/23 10:05:35;;;;;;;;;;;22.50;99.90;;;;;;5014080;28;19929;-72
2022/08/23 10:08:20;;;;;;;;;;;22.50;99.90;;;;;;5019914;28;19921;-71
2022/08/23 10:10:57;;;;;;;;;;;22.50;99.90;;;;;;5006568;28;19925;-71
2022/08/23 10:13:31;;;;;;;;;;;22.50;99.90;;;;;;5013671;28;20633;-72
2022/08/23 10:16:25;;;;;;;;;;;22.60;99.90;;;;;;5010470;28;19952;-72
2022/08/23 10:19:13;;;;;;;;;;;22.70;99.90;;;;;;5014492;28;20383;-71
2022/08/23 10:21:52;;;;;;;;;;;22.80;99.90;;;;;;5045911;28;20012;-72
2022/08/23 10:24:32;;;;;;;;;;;23.00;99.90;;;;;;4998828;28;20376;-72
2022/08/23 10:30:08;;;;;;;;;;;23.20;99.90;;;;;;5003630;28;20012;-72
2022/08/23 10:32:45;;;;;;;;;;;23.40;99.90;;;;;;5009269;28;20393;-71
2022/08/23 10:35:17;;;;;;;;;;;23.50;99.90;;;;;;4998322;28;19935;-72
2022/08/23 10:37:44;;;;;;;;;;;23.60;99.90;;;;;;4998694;28;19929;-71
2022/08/23 10:40:16;;;;;;;;;;;23.60;99.20;;;;;;4977532;28;1088276;-72
2022/08/23 10:42:59;;;;;;;;;;;23.60;98.70;;;;;;5011751;28;20032;-72
2022/08/23 10:45:34;;;;;;;;;;;23.70;99.00;;;;;;5003839;28;20320;-71
2022/08/23 10:48:27;;;;;;;;;;;23.70;97.90;;;;;;5031236;28;20299;-71
2022/08/23 10:51:06;;;;;;;;;;;23.80;98.20;;;;;;4988026;28;19964;-72
2022/08/23 10:53:45;;;;;;;;;;;23.70;99.00;;;;;;5008159;28;19922;-71
2022/08/23 10:56:19;;;;;;;;;;;23.70;99.20;;;;;;4998286;28;19929;-71
2022/08/23 10:58:59;;;;;;;;;;;23.80;98.60;;;;;;4981085;28;19957;-71
2022/08/23 11:01:41;;;;;;;;;;;23.80;98.30;;;;;;5013180;28;20016;-72
2022/08/23 11:04:19;;;;;;;;;;;23.90;97.50;;;;;;5013934;28;20007;-72
2022/08/23 11:07:15;;;;;;;;;;;24.00;97.30;;;;;;5015521;28;19927;-71
2022/08/23 11:10:05;;;;;;;;;;;24.00;97.00;;;;;;5019821;28;19948;-71
2022/08/23 11:12:56;;;;;;;;;;;24.20;98.90;;;;;;5001686;28;19929;-72
2022/08/23 11:15:29;;;;;;;;;;;24.20;98.00;;;;;;5015172;28;19968;-71
2022/08/23 11:17:59;;;;;;;;;;;24.30;97.70;;;;;;5025407;28;19926;-71
2022/08/23 11:20:48;;;;;;;;;;;24.30;97.90;;;;;;4996234;28;19969;-72
2022/08/23 11:23:43;;;;;;;;;;;24.30;97.10;;;;;;5032117;28;19931;-72
2022/08/23 11:26:21;;;;;;;;;;;24.40;98.40;;;;;;5002058;28;20379;-71
2022/08/23 11:28:55;;;;;;;;;;;24.50;98.50;;;;;;5012232;28;19921;-72
2022/08/23 11:31:30;;;;;;;;;;;24.50;97.00;;;;;;5002723;28;19921;-72
2022/08/23 11:34:22;;;;;;;;;;;24.50;97.30;;;;;;5039832;28;19932;-72
2022/08/23 11:37:16;;;;;;;;;;;24.50;97.30;;;;;;5013207;28;19925;-72
2022/08/23 11:39:58;;;;;;;;;;;24.40;96.80;;;;;;5013780;28;19962;-71
2022/08/23 11:42:37;;;;;;;;;;;24.40;97.10;;;;;;5014015;28;19921;-71
2022/08/23 11:45:29;;;;;;;;;;;24.50;95.30;;;;;;5009424;28;19929;-71
2022/08/23 11:48:10;;;;;;;;;;;24.60;96.60;;;;;;5012399;28;19921;-72
2022/08/23 11:50:41;;;;;;;;;;;24.60;95.60;;;;;;5012646;28;19968;-72
2022/08/23 11:53:18;;;;;;;;;;;24.80;95.00;;;;;;5026220;28;19925;-72
2022/08/23 11:55:57;;;;;;;;;;;24.90;94.80;;;;;;5011252;28;19925;-72
2022/08/23 11:58:47;;;;;;;;;;;25.00;95.00;;;;;;5013966;28;20036;-72
2022/08/23 12:01:28;;;;;;;;;;;25.10;94.10;;;;;;5013827;28;19929;-72
2022/08/23 12:04:09;;;;;;;;;;;25.10;93.30;;;;;;5027056;28;20383;-71
2022/08/23 12:06:44;;;;;;;;;;;25.10;93.20;;;;;;5010659;28;20387;-71
2022/08/23 12:09:19;;;;;;;;;;;25.10;93.60;;;;;;5011056;28;19921;-72
2022/08/23 12:11:53;;;;;;;;;;;25.10;93.60;;;;;;5012817;28;19928;-72
2022/08/23 12:14:31;;;;;;;;;;;25.10;93.50;;;;;;5013482;28;20379;-72
2022/08/23 12:17:15;;;;;;;;;;;25.10;93.00;;;;;;5011576;28;19922;-72
2022/08/23 12:19:50;;;;;;;;;;;25.20;93.30;;;;;;4995645;28;20372;-72
2022/08/23 12:22:18;;;;;;;;;;;25.20;94.20;;;;;;5011839;28;19931;-72
2022/08/23 12:24:50;;;;;;;;;;;25.20;92.60;;;;;;4999896;28;19925;-72
2022/08/23 12:27:28;;;;;;;;;;;25.30;91.90;;;;;;5012190;28;19927;-72
2022/08/23 12:30:19;;;;;;;;;;;25.40;92.20;;;;;;4993155;28;19925;-72
2022/08/23 12:33:03;;;;;;;;;;;25.60;92.00;;;;;;5025863;28;19921;-72
2022/08/23 12:35:37;;;;;;;;;;;25.70;91.30;;;;;;5028247;28;19927;-72
2022/08/23 12:38:26;;;;;;;;;;;25.70;91.60;;;;;;5014854;28;19931;-72
2022/08/23 12:41:10;;;;;;;;;;;25.60;91.50;;;;;;5010953;28;19922;-72
2022/08/23 12:43:52;;;;;;;;;;;25.60;91.30;;;;;;5015090;28;19928;-72
2022/08/23 12:46:31;;;;;;;;;;;25.70;92.00;;;;;;5002399;28;19922;-72
2022/08/23 12:49:05;;;;;;;;;;;25.80;90.90;;;;;;5011164;28;19928;-72
2022/08/23 12:51:56;;;;;;;;;;;25.80;91.40;;;;;;5018615;28;19975;-72
2022/08/23 12:54:31;;;;;;;;;;;25.80;90.30;;;;;;5008603;28;20036;-72
2022/08/23 12:57:10;;;;;;;;;;;26.00;91.60;;;;;;4995683;28;19921;-72
2022/08/23 12:59:56;;;;;;;;;;;26.10;91.40;;;;;;4996140;28;19943;-72
2022/08/23 13:02:32;;;;;;;;;;;26.00;90.20;;;;;;4991958;28;19932;-72
2022/08/23 13:05:17;;;;;;;;;;;26.30;90.30;;;;;;5011514;28;19928;-72
2022/08/23 13:07:43;;;;;;;;;;;26.40;88.80;;;;;;5017237;28;20491;-72
2022/08/23 13:10:15;;;;;;;;;;;26.60;90.40;;;;;;5035131;28;19921;-72
2022/08/23 13:12:47;;;;;;;;;;;26.80;91.00;;;;;;5001944;28;19979;-72
2022/08/23 13:15:54;;;;;;;;;;;27.00;88.20;;;;;;5014202;28;19925;-72
2022/08/23 13:18:22;;;;;;;;;;;27.20;89.30;;;;;;4934470;29;20465;-71
2022/08/23 13:21:12;;;;;;;;;;;27.30;86.30;;;;;;5016597;28;20298;-72
2022/08/23 13:23:45;;;;;;;;;;;27.30;87.20;;;;;;5012711;28;19927;-72
2022/08/23 13:26:23;;;;;;;;;;;27.00;84.00;;;;;;5000389;28;19921;-72
2022/08/23 13:29:00;;;;;;;;;;;26.80;85.00;;;;;;5003545;28;20295;-72
2022/08/23 13:31:47;;;;;;;;;;;26.90;84.70;;;;;;5021900;28;19921;-72
2022/08/23 13:34:36;;;;;;;;;;;27.00;81.70;;;;;;5015321;28;19921;-72
2022/08/23 13:37:28;;;;;;;;;;;27.10;82.20;;;;;;5009652;28;19921;-72
2022/08/23 13:40:06;;;;;;;;;;;27.10;79.20;;;;;;5043710;28;19936;-72
2022/08/23 13:42:34;;;;;;;;;;;27.10;78.50;;;;;;5030303;28;20008;-72
2022/08/23 13:45:12;;;;;;;;;;;27.20;82.50;;;;;;5017287;28;20323;-72
2022/08/23 13:47:49;;;;;;;;;;;27.40;82.80;;;;;;5008685;28;19922;-72
2022/08/23 13:50:24;;;;;;;;;;;27.60;80.20;;;;;;5011558;28;19929;-72
2022/08/23 13:52:56;;;;;;;;;;;27.80;79.60;;;;;;5010940;28;19987;-72
2022/08/23 13:55:28;;;;;;;;;;;28.00;78.20;;;;;;5013479;28;19963;-72
2022/08/23 13:58:00;;;;;;;;;;;28.00;73.90;;;;;;5013774;28;19962;-72
2022/08/23 14:00:26;;;;;;;;;;;28.10;74.20;;;;;;5031551;28;19921;-72
2022/08/23 14:02:58;;;;;;;;;;;28.10;72.90;;;;;;5030083;28;19921;-72
2022/08/23 14:05:30;;;;;;;;;;;28.20;71.20;;;;;;5027634;28;19928;-72
2022/08/23 14:08:01;;;;;;;;;;;28.20;70.80;;;;;;5014934;28;19920;-72
2022/08/23 14:10:33;;;;;;;;;;;28.30;73.80;;;;;;5004229;28;19925;-72
2022/08/23 14:13:00;;;;;;;;;;;28.40;73.20;;;;;;5017927;28;19921;-72
2022/08/23 14:15:32;;;;;;;;;;;28.40;72.30;;;;;;5013083;28;19980;-72
2022/08/23 14:18:04;;;;;;;;;;;28.40;69.30;;;;;;5016677;28;20393;-72
2022/08/23 14:20:36;;;;;;;;;;;28.40;70.20;;;;;;5014085;28;19921;-72
2022/08/23 14:23:08;;;;;;;;;;;28.60;70.00;;;;;;5042861;28;19931;-72
2022/08/23 14:25:39;;;;;;;;;;;28.80;66.90;;;;;;5022352;28;19921;-72
2022/08/23 14:28:12;;;;;;;;;;;28.90;68.80;;;;;;5006014;28;19920;-72
2022/08/23 14:30:43;;;;;;;;;;;28.90;66.30;;;;;;5036603;28;19921;-72
2022/08/23 14:33:15;;;;;;;;;;;29.00;68.30;;;;;;5038120;28;19932;-72
2022/08/23 14:35:47;;;;;;;;;;;29.10;67.20;;;;;;5012520;28;20020;-72
2022/08/23 14:38:19;;;;;;;;;;;29.20;68.80;;;;;;4997702;28;19976;-74
2022/08/23 14:40:52;;;;;;;;;;;29.40;69.00;;;;;;4998924;28;20413;-72
2022/08/23 14:43:24;;;;;;;;;;;29.60;68.00;;;;;;5028838;28;19921;-72
2022/08/23 14:45:51;;;;;;;;;;;29.80;66.50;;;;;;5014179;28;19924;-72
2022/08/23 14:48:24;;;;;;;;;;;29.90;66.00;;;;;;5014678;28;20298;-72
2022/08/23 14:50:55;;;;;;;;;;;30.00;64.90;;;;;;5009768;28;19920;-72
2022/08/23 14:53:28;;;;;;;;;;;30.00;61.90;;;;;;5033360;28;19921;-72
2022/08/23 14:55:55;;;;;;;;;;;30.20;61.00;;;;;;5016043;28;19922;-72
2022/08/23 14:58:22;;;;;;;;;;;30.30;62.40;;;;;;5014277;28;20435;-72
2022/08/23 15:00:54;;;;;;;;;;;30.70;63.60;;;;;;5012636;28;19925;-72
2022/08/23 15:03:26;;;;;;;;;;;30.90;64.10;;;;;;5027993;28;19921;-72
2022/08/23 15:05:58;;;;;;;;;;;31.00;61.10;;;;;;5025956;28;20376;-72
2022/08/23 15:08:29;;;;;;;;;;;31.20;61.60;;;;;;5024546;28;19947;-72
2022/08/23 15:11:03;;;;;;;;;;;31.40;58.20;;;;;;5024951;28;19921;-72
2022/08/23 15:13:35;;;;;;;;;;;31.50;60.70;;;;;;5027538;28;19922;-72
2022/08/23 15:16:08;;;;;;;;;;;31.70;58.60;;;;;;5030433;28;20026;-72
2022/08/23 15:18:36;;;;;;;;;;;31.90;58.90;;;;;;5015098;28;20003;-72
2022/08/23 15:21:08;;;;;;;;;;;32.00;56.80;;;;;;5030035;28;19925;-72